Time;durP1;ratioP1;P1;durP2;ratioP2;P2;SDS_P1;SDS_P2;PMS_P1;PMS_P2;Temp;Humidity;BMP_temperature;BMP_pressure;BME280_temperature;BME280_humidity;BME280_pressure;Samples;Min_cycle;Max_cycle;Signal;HPM_P1;HPM_P2
2022/12/10 00:01:56;;;;;;;0.00;0.00;;;;;;;0.14;100.00;97464.72;4959226;28;20268;-60
2022/12/10 00:04:24;;;;;;;0.00;0.00;;;;;;;0.14;100.00;97462.16;4962983;28;20265;-60
2022/12/10 00:06:51;;;;;;;0.00;0.00;;;;;;;0.11;100.00;97459.03;4961780;28;20247;-60
2022/12/10 00:09:19;;;;;;;0.00;0.00;;;;;;;0.06;100.00;97469.59;4964102;28;20237;-60
2022/12/10 00:11:46;;;;;;;0.00;0.00;;;;;;;0.07;100.00;97473.81;4964090;28;20586;-59
2022/12/10 00:14:14;;;;;;;0.00;0.00;;;;;;;0.03;100.00;97471.59;4959700;28;20245;-60
2022/12/10 00:16:41;;;;;;;0.00;0.00;;;;;;;0.02;100.00;97477.66;4964400;28;20582;-60
2022/12/10 00:19:08;;;;;;;0.00;0.00;;;;;;;0.09;100.00;97477.09;4961718;28;20249;-60
2022/12/10 00:21:37;;;;;;;0.00;0.00;;;;;;;0.05;100.00;97480.81;4963877;28;20694;-61
2022/12/10 00:24:05;;;;;;;0.00;0.00;;;;;;;0.03;100.00;97480.09;4961993;28;20248;-60
2022/12/10 00:26:35;;;;;;;0.00;0.00;;;;;;;-0.02;100.00;97477.09;4962234;28;20229;-62
2022/12/10 00:29:03;;;;;;;0.00;0.00;;;;;;;0.00;100.00;97477.78;4961531;28;20709;-61
2022/12/10 00:31:32;;;;;;;0.00;0.00;;;;;;;0.04;100.00;97471.47;4960779;28;20268;-61
2022/12/10 00:34:01;;;;;;;0.00;0.00;;;;;;;0.06;100.00;97479.88;4960019;28;20258;-61
2022/12/10 00:36:30;;;;;;;0.00;0.00;;;;;;;-0.02;100.00;97480.44;4961425;28;20237;-60
2022/12/10 00:39:01;;;;;;;0.00;0.00;;;;;;;0.02;100.00;97475.09;4958004;28;20225;-61
2022/12/10 00:41:28;;;;;;;0.00;0.00;;;;;;;0.02;100.00;97478.47;4965171;28;20704;-61
2022/12/10 00:43:55;;;;;;;0.00;0.00;;;;;;;0.02;100.00;97481.03;4960825;28;20238;-61
2022/12/10 00:46:22;;;;;;;0.00;0.00;;;;;;;0.02;100.00;97482.78;4957527;28;20241;-61
2022/12/10 00:48:49;;;;;;;0.00;0.00;;;;;;;0.02;100.00;97480.22;4958808;28;21021;-61
2022/12/10 00:51:18;;;;;;;0.00;0.00;;;;;;;0.02;100.00;97481.03;4962323;28;20245;-61
2022/12/10 00:53:46;;;;;;;0.00;0.00;;;;;;;0.00;100.00;97480.34;4962223;28;20651;-61
2022/12/10 00:56:16;;;;;;;0.00;0.00;;;;;;;0.00;100.00;97482.91;4960423;28;20241;-62
2022/12/10 00:58:43;;;;;;;0.00;0.00;;;;;;;0.02;100.00;97488.72;4963870;28;20760;-61
2022/12/10 01:01:18;;;;;;;0.00;0.00;;;;;;;0.03;100.00;97495.50;4958690;28;20605;-61
2022/12/10 01:03:46;;;;;;;0.00;0.00;;;;;;;0.02;100.00;97495.63;4963185;28;20229;-61
2022/12/10 01:06:19;;;;;;;0.00;0.00;;;;;;;0.04;100.00;97499.69;4959903;28;20920;-61
2022/12/10 01:08:47;;;;;;;0.00;0.00;;;;;;;0.08;100.00;97495.97;4962264;28;20313;-61
2022/12/10 01:11:17;;;;;;;0.00;0.00;;;;;;;0.09;100.00;97497.59;4959758;28;20321;-61
2022/12/10 01:13:45;;;;;;;0.10;0.10;;;;;;;0.07;100.00;97494.34;4957765;28;20236;-61
2022/12/10 01:16:14;;;;;;;0.00;0.00;;;;;;;0.07;100.00;97491.78;4959447;28;20244;-61
2022/12/10 01:18:42;;;;;;;0.00;0.00;;;;;;;0.06;100.00;97489.34;4958307;28;20222;-62
2022/12/10 01:21:12;;;;;;;0.00;0.00;;;;;;;0.01;100.00;97488.84;4957693;28;20732;-62
2022/12/10 01:23:41;;;;;;;0.00;0.00;;;;;;;0.00;100.00;97490.63;4962699;28;20597;-61
2022/12/10 01:26:10;;;;;;;0.00;0.00;;;;;;;0.03;100.00;97499.81;4961018;28;20259;-61
2022/12/10 01:28:40;;;;;;;0.00;0.00;;;;;;;0.03;100.00;97498.06;4960978;28;20230;-61
2022/12/10 01:31:10;;;;;;;0.00;0.00;;;;;;;0.03;100.00;97499.81;4960592;28;20237;-61
2022/12/10 01:33:39;;;;;;;0.00;0.00;;;;;;;0.02;100.00;97499.00;4961344;28;20690;-61
2022/12/10 01:36:08;;;;;;;0.00;0.00;;;;;;;0.02;100.00;97495.63;4953033;28;20230;-61
2022/12/10 01:38:36;;;;;;;0.00;0.00;;;;;;;-0.04;100.00;97494.34;4963372;28;20694;-61
2022/12/10 01:41:06;;;;;;;0.00;0.00;;;;;;;-0.08;100.00;97492.91;4958372;28;20253;-61
2022/12/10 01:43:53;;;;;;;0.00;0.00;;;;;;;-0.15;100.00;97489.97;4961902;28;20292;-61
2022/12/10 01:46:20;;;;;;;0.00;0.00;;;;;;;-0.19;100.00;97493.69;4957513;28;20307;-61
2022/12/10 01:48:46;;;;;;;0.00;0.00;;;;;;;-0.25;100.00;97489.81;4973802;28;20233;-61
2022/12/10 01:51:14;;;;;;;0.00;0.00;;;;;;;-0.27;100.00;97490.84;4956791;28;20271;-61
2022/12/10 01:53:42;;;;;;;0.00;0.00;;;;;;;-0.41;100.00;97495.22;4959632;28;20237;-61
2022/12/10 01:56:10;;;;;;;0.00;0.00;;;;;;;-0.51;100.00;97489.09;4956527;28;20225;-61
2022/12/10 01:58:38;;;;;;;0.00;0.00;;;;;;;-0.65;100.00;97484.97;4963867;28;20343;-60
2022/12/10 02:01:11;;;;;;;0.00;0.00;;;;;;;-0.68;100.00;97488.56;4956414;28;20256;-61
2022/12/10 02:03:49;;;;;;;0.00;0.00;;;;;;;-0.86;100.00;97482.97;4959556;28;20229;-61
2022/12/10 02:06:32;;;;;;;0.00;0.00;;;;;;;-0.95;100.00;97481.88;4962575;28;20311;-61
2022/12/10 02:09:28;;;;;;;0.00;0.00;;;;;;;-1.07;100.00;97482.75;4964963;28;20379;-62
2022/12/10 02:12:06;;;;;;;0.00;0.00;;;;;;;-1.18;100.00;97478.38;4956026;28;20236;-62
2022/12/10 02:14:44;;;;;;;0.00;0.00;;;;;;;-1.26;100.00;97483.19;4957234;28;20280;-62
2022/12/10 02:17:16;;;;;;;0.00;0.00;;;;;;;-1.32;100.00;97486.16;4954588;28;20263;-62
2022/12/10 02:19:58;;;;;;;0.00;0.00;;;;;;;-1.34;100.00;97483.69;4955159;28;20230;-62
2022/12/10 02:22:29;;;;;;;0.10;0.10;;;;;;;-1.40;100.00;97484.09;4974773;28;20275;-62
2022/12/10 02:24:58;;;;;;;0.00;0.00;;;;;;;-1.48;100.00;97493.13;4957623;28;20716;-63
2022/12/10 02:27:32;;;;;;;0.00;0.00;;;;;;;-1.59;100.00;97489.66;4960004;28;20256;-63
2022/12/10 02:30:01;;;;;;;0.00;0.00;;;;;;;-1.71;100.00;97497.22;4969705;28;20770;-63
2022/12/10 02:32:34;;;;;;;0.00;0.00;;;;;;;-1.67;100.00;97496.09;4973436;28;20232;-63
2022/12/10 02:35:06;;;;;;;0.10;0.10;;;;;;;-1.74;100.00;97491.50;4974208;28;20243;-63
2022/12/10 02:37:37;;;;;;;0.00;0.00;;;;;;;-1.72;100.00;97494.78;4958681;28;20733;-63
2022/12/10 02:40:09;;;;;;;0.00;0.00;;;;;;;-1.68;100.00;97494.47;4954893;28;20239;-63
2022/12/10 02:42:44;;;;;;;0.00;0.00;;;;;;;-1.61;100.00;97491.50;4953985;28;20271;-63
2022/12/10 02:45:13;;;;;;;0.00;0.00;;;;;;;-1.63;100.00;97499.28;4959739;28;20224;-63
2022/12/10 02:47:42;;;;;;;0.00;0.00;;;;;;;-1.62;100.00;97493.25;4958826;28;20243;-63
2022/12/10 02:50:12;;;;;;;0.00;0.00;;;;;;;-1.62;100.00;97488.13;4961285;28;20231;-63
2022/12/10 02:52:38;;;;;;;0.00;0.00;;;;;;;-1.56;100.00;97492.00;4956005;28;20235;-63
2022/12/10 02:55:05;;;;;;;0.00;0.00;;;;;;;-1.54;100.00;97493.53;4961240;28;20653;-63
2022/12/10 02:57:37;;;;;;;0.00;0.00;;;;;;;-1.44;100.00;97496.31;4960013;28;20239;-63
2022/12/10 03:00:16;;;;;;;0.00;0.00;;;;;;;-1.35;100.00;97498.25;4958361;28;20248;-63
2022/12/10 03:03:09;;;;;;;0.00;0.00;;;;;;;-1.25;100.00;97497.63;4953465;28;20331;-63
2022/12/10 03:05:43;;;;;;;0.00;0.00;;;;;;;-1.20;100.00;97493.00;4947711;28;20237;-63
2022/12/10 03:08:15;;;;;;;0.00;0.00;;;;;;;-1.16;100.00;97502.13;4960481;28;20252;-63
2022/12/10 03:10:49;;;;;;;0.07;0.07;;;;;;;-1.09;100.00;97494.81;4957914;28;20326;-63
2022/12/10 03:13:18;;;;;;;0.00;0.00;;;;;;;-1.00;100.00;97504.44;4961634;28;20315;-63
2022/12/10 03:15:49;;;;;;;0.00;0.00;;;;;;;-0.95;100.00;97504.13;4958515;28;20227;-63
2022/12/10 03:18:18;;;;;;;0.07;0.07;;;;;;;-0.91;100.00;97508.09;4961091;28;20319;-63
2022/12/10 03:20:47;;;;;;;0.00;0.00;;;;;;;-0.83;100.00;97510.16;4956438;28;20237;-62
2022/12/10 03:23:17;;;;;;;0.00;0.00;;;;;;;-0.81;100.00;97516.78;4960826;28;20236;-62
2022/12/10 03:25:45;;;;;;;0.00;0.00;;;;;;;-0.74;100.00;97522.31;4957989;28;20326;-62
2022/12/10 03:28:12;;;;;;;0.00;0.00;;;;;;;-0.69;100.00;97522.81;4963429;28;20221;-62
2022/12/10 03:30:41;;;;;;;0.00;0.00;;;;;;;-0.65;100.00;97524.25;4962566;28;20713;-62
2022/12/10 03:33:10;;;;;;;0.10;0.10;;;;;;;-0.68;100.00;97521.06;4963177;28;20310;-62
2022/12/10 03:35:37;;;;;;;0.00;0.00;;;;;;;-0.65;100.00;97526.81;4960174;28;20307;-62
2022/12/10 03:38:04;;;;;;;0.00;0.00;;;;;;;-0.61;100.00;97524.84;4969419;28;20633;-63
2022/12/10 03:40:30;;;;;;;0.00;0.00;;;;;;;-0.60;100.00;97531.59;4968421;28;20229;-63
2022/12/10 03:42:57;;;;;;;0.00;0.00;;;;;;;-0.60;100.00;97527.31;4964503;28;20240;-63
2022/12/10 03:45:23;;;;;;;0.03;0.03;;;;;;;-0.53;100.00;97525.13;4968488;28;20234;-62
2022/12/10 03:47:50;;;;;;;0.00;0.00;;;;;;;-0.51;100.00;97525.81;4961504;28;20230;-62
2022/12/10 03:50:18;;;;;;;0.00;0.00;;;;;;;-0.46;100.00;97528.88;4968540;28;20264;-62
2022/12/10 03:52:44;;;;;;;0.00;0.00;;;;;;;-0.44;100.00;97531.31;4965723;28;20232;-61
2022/12/10 03:55:11;;;;;;;0.00;0.00;;;;;;;-0.40;100.00;97521.69;4969535;28;20233;-62
2022/12/10 03:57:38;;;;;;;0.00;0.00;;;;;;;-0.41;100.00;97525.19;4969792;28;20228;-62
2022/12/10 04:00:06;;;;;;;0.07;0.07;;;;;;;-0.43;100.00;97517.59;4965119;28;20292;-62
2022/12/10 04:02:38;;;;;;;0.00;0.00;;;;;;;-0.38;100.00;97519.84;4965174;28;20225;-62
2022/12/10 04:05:06;;;;;;;0.00;0.00;;;;;;;-0.36;100.00;97507.72;4967422;28;20248;-62
2022/12/10 04:07:34;;;;;;;0.00;0.00;;;;;;;-0.34;100.00;97521.25;4967871;28;20721;-62
2022/12/10 04:10:01;;;;;;;0.00;0.00;;;;;;;-0.35;100.00;97520.41;4964665;28;20237;-62
2022/12/10 04:12:27;;;;;;;0.00;0.00;;;;;;;-0.27;100.00;97519.91;4969091;28;20718;-62
2022/12/10 04:17:38;;;;;;;0.00;0.00;;;;;;;-0.35;100.00;97515.28;4963966;28;20617;-62
2022/12/10 04:26:51;;;;;;;0.00;0.00;;;;;;;-0.30;100.00;97512.41;4969324;28;20693;-61
2022/12/10 04:28:20;;;;;;;0.00;0.00;;;;;;;-0.22;100.00;97510.13;4970734;28;20280;-62
2022/12/10 04:30:49;;;;;;;0.00;0.00;;;;;;;-0.19;100.00;97509.06;5159334;23;20208;-62
2022/12/10 04:33:15;;;;;;;0.00;0.00;;;;;;;-0.19;100.00;97509.91;5010771;23;20222;-57
2022/12/10 04:35:42;;;;;;;0.00;0.00;;;;;;;-0.18;100.00;97503.00;4999757;28;20231;-57
2022/12/10 04:38:10;;;;;;;0.10;0.10;;;;;;;-0.16;100.00;97516.53;5004230;28;20231;-56
2022/12/10 04:40:36;;;;;;;0.00;0.00;;;;;;;-0.15;100.00;97510.47;5001934;28;20221;-56
2022/12/10 04:43:05;;;;;;;0.00;0.00;;;;;;;-0.13;100.00;97513.75;5006420;28;20240;-57
2022/12/10 04:45:34;;;;;;;0.00;0.00;;;;;;;-0.13;100.00;97508.63;5006216;28;20283;-55
2022/12/10 04:48:01;;;;;;;0.00;0.00;;;;;;;-0.12;100.00;97505.13;5003612;28;20324;-56
2022/12/10 04:50:28;;;;;;;0.00;0.00;;;;;;;-0.11;100.00;97513.66;5005923;28;20235;-56
2022/12/10 04:52:54;;;;;;;0.00;0.00;;;;;;;-0.16;100.00;97508.84;5004748;28;23283;-57
2022/12/10 04:55:22;;;;;;;0.00;0.00;;;;;;;-0.12;100.00;97504.34;5006243;28;20236;-56
2022/12/10 04:57:49;;;;;;;0.00;0.00;;;;;;;-0.16;100.00;97504.56;5002112;28;20232;-57
2022/12/10 05:00:16;;;;;;;0.00;0.00;;;;;;;-0.11;100.00;97511.09;5004548;28;20228;-57
2022/12/10 05:02:42;;;;;;;0.00;0.00;;;;;;;-0.12;100.00;97512.03;5004586;28;20228;-58
2022/12/10 05:05:09;;;;;;;0.10;0.10;;;;;;;-0.10;100.00;97510.97;5005633;28;20232;-57
2022/12/10 05:07:35;;;;;;;0.00;0.00;;;;;;;-0.10;100.00;97521.22;5004214;28;20295;-55
2022/12/10 05:10:02;;;;;;;0.00;0.00;;;;;;;-0.06;100.00;97524.41;5006349;28;20236;-58
2022/12/10 05:12:30;;;;;;;0.00;0.00;;;;;;;-0.07;100.00;97525.34;5004775;28;20232;-58
2022/12/10 05:14:56;;;;;;;0.00;0.00;;;;;;;-0.02;100.00;97529.19;5003428;28;20796;-58
2022/12/10 05:17:23;;;;;;;0.00;0.00;;;;;;;0.00;100.00;97521.41;5006285;28;20232;-57
2022/12/10 05:19:50;;;;;;;0.00;0.00;;;;;;;0.02;100.00;97519.50;5002278;28;20239;-57
2022/12/10 05:25:00;;;;;;;0.00;0.00;;;;;;;0.00;100.00;97523.97;5002475;28;20236;-57
2022/12/10 05:27:33;;;;;;;0.00;0.00;;;;;;;0.01;100.00;97530.72;5006114;28;20236;-57
2022/12/10 05:30:00;;;;;;;0.00;0.00;;;;;;;0.02;100.00;97522.06;4999508;28;20232;-57
2022/12/10 05:32:26;;;;;;;0.00;0.00;;;;;;;0.07;100.00;97521.75;5004205;28;20232;-58
2022/12/10 05:34:53;;;;;;;0.03;0.03;;;;;;;0.07;100.00;97532.81;5002428;28;20246;-57
2022/12/10 05:37:19;;;;;;;0.00;0.00;;;;;;;0.08;100.00;97531.91;5005901;28;20667;-58
2022/12/10 05:39:46;;;;;;;0.10;0.10;;;;;;;0.04;100.00;97538.19;5002783;28;20298;-56
2022/12/10 05:42:12;;;;;;;0.00;0.00;;;;;;;0.08;100.00;97534.47;5003437;28;20709;-57
2022/12/10 05:44:42;;;;;;;0.00;0.00;;;;;;;0.09;100.00;97541.22;5001654;28;20233;-57
2022/12/10 05:47:11;;;;;;;0.00;0.00;;;;;;;0.11;100.00;97531.69;5004504;28;20729;-57
2022/12/10 05:49:38;;;;;;;0.00;0.00;;;;;;;0.13;100.00;97536.72;5003151;28;20232;-57
2022/12/10 05:52:05;;;;;;;0.00;0.00;;;;;;;0.14;100.00;97540.91;5003304;28;20239;-56
2022/12/10 05:54:31;;;;;;;0.00;0.00;;;;;;;0.17;100.00;97527.84;5005440;28;20228;-56
2022/12/10 05:56:58;;;;;;;0.00;0.00;;;;;;;0.20;100.00;97539.63;5001507;28;20298;-58
2022/12/10 05:59:24;;;;;;;0.00;0.00;;;;;;;0.25;100.00;97540.13;5004991;28;20243;-57
2022/12/10 06:01:52;;;;;;;0.00;0.00;;;;;;;0.28;100.00;97545.84;5002945;28;20278;-57
2022/12/10 06:04:19;;;;;;;0.00;0.00;;;;;;;0.29;100.00;97562.91;5004618;28;20221;-58
2022/12/10 06:06:47;;;;;;;0.00;0.00;;;;;;;0.33;100.00;97562.69;5001029;28;20221;-57
2022/12/10 06:09:14;;;;;;;0.00;0.00;;;;;;;0.34;100.00;97569.44;5005488;28;20222;-57
2022/12/10 06:11:41;;;;;;;0.00;0.00;;;;;;;0.34;100.00;97574.56;5006450;28;20651;-57
2022/12/10 06:14:09;;;;;;;0.00;0.00;;;;;;;0.33;100.00;97578.06;5004573;28;20783;-57
2022/12/10 06:16:36;;;;;;;0.00;0.00;;;;;;;0.34;100.00;97582.28;5001781;28;20232;-58
2022/12/10 06:19:04;;;;;;;0.07;0.07;;;;;;;0.35;100.00;97584.72;5005994;28;20236;-58
2022/12/10 06:21:30;;;;;;;0.00;0.00;;;;;;;0.36;100.00;97588.94;5004352;28;20232;-58
2022/12/10 06:23:57;;;;;;;0.00;0.00;;;;;;;0.36;100.00;97588.13;5002452;28;20246;-57
2022/12/10 06:26:26;;;;;;;0.00;0.00;;;;;;;0.38;100.00;97591.41;5004543;28;20232;-57
2022/12/10 06:28:53;;;;;;;0.00;0.00;;;;;;;0.37;100.00;97587.19;5001155;28;20708;-57
2022/12/10 06:31:20;;;;;;;0.00;0.00;;;;;;;0.34;100.00;97588.22;5003093;28;20247;-57
2022/12/10 06:33:48;;;;;;;0.00;0.00;;;;;;;0.37;100.00;97593.13;5000298;28;20705;-57
2022/12/10 06:36:17;;;;;;;0.00;0.00;;;;;;;0.35;100.00;97596.75;5004597;28;20793;-57
2022/12/10 06:38:44;;;;;;;0.00;0.00;;;;;;;0.36;100.00;97606.91;5001971;28;20244;-57
2022/12/10 06:41:14;;;;;;;0.00;0.00;;;;;;;0.34;100.00;97608.75;5004380;28;20258;-58
2022/12/10 06:43:40;;;;;;;0.00;0.00;;;;;;;0.33;100.00;97606.31;5000492;28;20225;-57
2022/12/10 06:46:08;;;;;;;0.00;0.00;;;;;;;0.28;100.00;97606.63;5003735;28;20235;-58
2022/12/10 06:48:35;;;;;;;0.00;0.00;;;;;;;0.27;100.00;97610.97;5003856;28;20236;-57
2022/12/10 06:51:02;;;;;;;0.00;0.00;;;;;;;0.35;100.00;97614.72;5000348;28;20313;-57
2022/12/10 06:53:31;;;;;;;0.00;0.00;;;;;;;0.31;100.00;97615.88;5004547;28;20225;-57
2022/12/10 06:55:59;;;;;;;0.00;0.00;;;;;;;0.36;100.00;97617.16;5001959;28;20240;-57
2022/12/10 06:58:27;;;;;;;0.00;0.00;;;;;;;0.38;100.00;97617.06;5005006;28;20232;-57
2022/12/10 07:00:54;;;;;;;0.00;0.00;;;;;;;0.40;100.00;97622.91;5001300;28;20271;-57
2022/12/10 07:03:22;;;;;;;0.00;0.00;;;;;;;0.44;100.00;97624.31;5003288;28;20215;-57
2022/12/10 07:05:49;;;;;;;0.00;0.00;;;;;;;0.45;100.00;97623.41;5001814;28;20220;-57
2022/12/10 07:08:17;;;;;;;0.10;0.10;;;;;;;0.44;100.00;97620.00;5003382;28;20224;-55
2022/12/10 07:10:45;;;;;;;0.00;0.00;;;;;;;0.43;100.00;97625.25;5000367;28;20577;-57
2022/12/10 07:13:12;;;;;;;0.00;0.00;;;;;;;0.47;100.00;97639.50;5003824;28;20610;-57
2022/12/10 07:15:38;;;;;;;0.00;0.00;;;;;;;0.44;100.00;97637.97;5000434;28;20560;-57
2022/12/10 07:18:05;;;;;;;0.00;0.00;;;;;;;0.44;100.00;97640.53;5001643;28;20631;-57
2022/12/10 07:20:31;;;;;;;0.00;0.00;;;;;;;0.46;100.00;97642.16;5003866;28;20236;-58
2022/12/10 07:23:00;;;;;;;0.00;0.00;;;;;;;0.37;100.00;97636.78;4999925;28;20753;-57
2022/12/10 07:25:27;;;;;;;0.00;0.00;;;;;;;0.44;100.00;97639.72;5003889;28;20232;-57
2022/12/10 07:27:55;;;;;;;0.00;0.00;;;;;;;0.39;100.00;97642.63;4999743;28;20227;-58
2022/12/10 07:30:22;;;;;;;0.00;0.00;;;;;;;0.27;100.00;97644.31;5004106;28;20293;-58
2022/12/10 07:32:48;;;;;;;0.00;0.00;;;;;;;0.29;100.00;97647.59;4999964;28;20239;-58
2022/12/10 07:35:16;;;;;;;0.07;0.07;;;;;;;0.33;100.00;97648.19;5002438;28;20223;-57
2022/12/10 07:37:46;;;;;;;0.00;0.00;;;;;;;0.35;100.00;97645.53;5001505;28;20223;-57
2022/12/10 07:40:13;;;;;;;0.00;0.00;;;;;;;0.38;100.00;97656.38;5005612;28;20282;-56
2022/12/10 07:42:40;;;;;;;0.00;0.00;;;;;;;0.33;100.00;97657.66;5001148;28;20235;-58
2022/12/10 07:45:08;;;;;;;0.00;0.00;;;;;;;0.26;100.00;97652.13;5004996;28;20286;-57
2022/12/10 07:47:35;;;;;;;0.00;0.00;;;;;;;0.26;100.00;97659.81;5004798;28;20224;-54
2022/12/10 07:50:02;;;;;;;0.00;0.00;;;;;;;0.35;100.00;97663.50;5002157;28;20232;-58
2022/12/10 07:52:29;;;;;;;0.00;0.00;;;;;;;0.30;100.00;97656.09;5004573;28;20240;-57
2022/12/10 07:54:55;;;;;;;0.00;0.00;;;;;;;0.33;100.00;97668.72;5001400;28;20610;-57
2022/12/10 07:57:22;;;;;;;0.00;0.00;;;;;;;0.33;100.00;97670.50;5004007;28;20712;-58
2022/12/10 07:59:48;;;;;;;0.00;0.00;;;;;;;0.39;100.00;97675.19;4999866;28;20220;-57
2022/12/10 08:02:16;;;;;;;0.00;0.00;;;;;;;0.41;100.00;97673.31;5003300;28;20296;-55
2022/12/10 08:04:43;;;;;;;0.00;0.00;;;;;;;0.46;100.00;97675.56;5001267;28;20228;-57
2022/12/10 08:07:11;;;;;;;0.00;0.00;;;;;;;0.43;100.00;97677.41;5004300;28;20624;-57
2022/12/10 08:09:37;;;;;;;0.00;0.00;;;;;;;0.47;100.00;97680.59;5001361;28;20232;-57
2022/12/10 08:12:04;;;;;;;0.00;0.00;;;;;;;0.46;100.00;97683.25;5002511;28;20239;-58
2022/12/10 08:14:30;;;;;;;0.00;0.00;;;;;;;0.36;100.00;97677.97;5002649;28;20228;-57
2022/12/10 08:16:57;;;;;;;0.00;0.00;;;;;;;0.36;100.00;97683.09;5000019;28;20236;-56
2022/12/10 08:19:25;;;;;;;0.00;0.00;;;;;;;0.39;100.00;97677.75;5001429;28;20638;-57
2022/12/10 08:21:51;;;;;;;0.00;0.00;;;;;;;0.44;100.00;97675.69;4999682;28;20606;-57
2022/12/10 08:24:18;;;;;;;0.00;0.00;;;;;;;0.40;100.00;97676.81;5006795;28;20232;-56
2022/12/10 08:26:45;;;;;;;0.00;0.00;;;;;;;0.43;100.00;97674.84;5003637;28;20231;-57
2022/12/10 08:29:11;;;;;;;0.00;0.00;;;;;;;0.43;100.00;97685.13;5005986;28;20228;-58
2022/12/10 08:31:38;;;;;;;0.00;0.00;;;;;;;0.48;100.00;97676.25;5002552;28;20367;-55
2022/12/10 08:34:06;;;;;;;0.00;0.00;;;;;;;0.57;100.00;97675.59;5006522;28;20224;-58
2022/12/10 08:36:34;;;;;;;0.00;0.00;;;;;;;0.59;100.00;97694.28;5005639;28;20839;-55
2022/12/10 08:39:00;;;;;;;0.07;0.07;;;;;;;0.66;100.00;97692.91;5003684;28;20228;-57
2022/12/10 08:41:27;;;;;;;0.00;0.00;;;;;;;0.64;100.00;97689.63;5007286;28;20676;-57
2022/12/10 08:43:54;;;;;;;0.00;0.00;;;;;;;0.70;100.00;97696.91;5004495;28;20227;-56
2022/12/10 08:46:22;;;;;;;0.00;0.00;;;;;;;0.67;100.00;97698.84;5006776;28;20220;-57
2022/12/10 08:48:49;;;;;;;0.10;0.10;;;;;;;0.62;100.00;97713.78;5003913;28;20223;-57
2022/12/10 08:51:18;;;;;;;0.00;0.00;;;;;;;0.62;100.00;97706.91;5007240;28;20316;-57
2022/12/10 08:53:48;;;;;;;0.00;0.00;;;;;;;0.69;100.00;97707.25;5004579;28;20255;-57
2022/12/10 08:56:15;;;;;;;0.00;0.00;;;;;;;0.66;100.00;97705.75;5007466;28;20236;-54
2022/12/10 08:58:42;;;;;;;0.00;0.00;;;;;;;0.68;100.00;97706.47;5004822;28;20224;-56
2022/12/10 09:01:09;;;;;;;0.00;0.00;;;;;;;0.71;100.00;97710.53;5007990;28;20721;-57
2022/12/10 09:03:37;;;;;;;0.10;0.10;;;;;;;0.78;100.00;97709.16;5002790;28;20712;-57
2022/12/10 09:06:04;;;;;;;0.00;0.00;;;;;;;0.84;100.00;97715.63;5006234;28;20256;-56
2022/12/10 09:08:31;;;;;;;0.00;0.00;;;;;;;0.75;100.00;97724.00;5006005;28;20247;-57
2022/12/10 09:11:04;;;;;;;0.00;0.00;;;;;;;0.82;100.00;97727.75;5004494;28;20240;-56
2022/12/10 09:13:31;;;;;;;0.00;0.00;;;;;;;0.76;100.00;97730.78;5006154;28;20704;-56
2022/12/10 09:15:57;;;;;;;0.00;0.00;;;;;;;0.68;100.00;97723.59;5003897;28;20711;-55
2022/12/10 09:18:24;;;;;;;0.00;0.00;;;;;;;0.82;100.00;97733.72;5006002;28;20238;-56
2022/12/10 09:20:50;;;;;;;0.00;0.00;;;;;;;0.87;100.00;97735.97;5003964;28;20233;-56
2022/12/10 09:23:17;;;;;;;0.00;0.00;;;;;;;0.97;100.00;97730.97;5006571;28;20779;-57
2022/12/10 09:25:43;;;;;;;0.00;0.00;;;;;;;1.02;100.00;97729.72;5004320;28;20620;-56
2022/12/10 09:28:11;;;;;;;0.10;0.10;;;;;;;0.99;100.00;97732.50;5006734;28;20299;-55
2022/12/10 09:30:38;;;;;;;0.00;0.00;;;;;;;1.20;100.00;97736.16;5003987;28;20293;-57
2022/12/10 09:33:05;;;;;;;0.00;0.00;;;;;;;1.35;100.00;97736.75;5006522;28;20228;-57
2022/12/10 09:35:31;;;;;;;0.00;0.00;;;;;;;1.33;99.25;97749.75;5005628;28;20236;-57
2022/12/10 09:37:58;;;;;;;0.10;0.10;;;;;;;1.54;98.77;97747.31;5003122;28;20232;-55
2022/12/10 09:40:33;;;;;;;0.00;0.00;;;;;;;1.48;98.68;97750.34;5006499;28;20244;-57
2022/12/10 09:43:04;;;;;;;0.00;0.00;;;;;;;1.56;99.79;97747.22;5002420;28;20311;-57
2022/12/10 09:45:39;;;;;;;0.00;0.00;;;;;;;1.70;99.38;97759.03;5006090;28;20232;-56
2022/12/10 09:48:18;;;;;;;0.00;0.00;;;;;;;1.66;97.76;97755.84;5004133;28;20247;-57
2022/12/10 09:50:53;;;;;;;0.00;0.00;;;;;;;1.56;95.94;97758.31;5003804;28;20738;-56
2022/12/10 09:53:22;;;;;;;0.10;0.10;;;;;;;1.41;97.62;97765.44;5004271;28;20219;-57
2022/12/10 09:55:50;;;;;;;0.00;0.00;;;;;;;0.94;100.00;97754.31;5002937;28;20230;-57
2022/12/10 09:58:20;;;;;;;0.00;0.00;;;;;;;1.05;100.00;97753.53;5006081;28;20224;-54
2022/12/10 10:00:51;;;;;;;0.00;0.00;;;;;;;0.98;100.00;97751.41;5003033;28;20243;-57
2022/12/10 10:03:18;;;;;;;0.00;0.00;;;;;;;1.15;100.00;97754.47;5005927;28;20246;-56
2022/12/10 10:05:48;;;;;;;0.00;0.00;;;;;;;1.16;100.00;97756.13;5003010;28;20601;-57
2022/12/10 10:08:27;;;;;;;0.00;0.00;;;;;;;1.24;99.85;97751.22;5005967;28;20723;-56
2022/12/10 10:10:55;;;;;;;0.00;0.00;;;;;;;1.11;99.32;97760.78;5003351;28;20240;-57
2022/12/10 10:13:31;;;;;;;0.00;0.00;;;;;;;1.27;97.96;97753.56;5005418;28;20672;-57
2022/12/10 10:16:23;;;;;;;0.00;0.00;;;;;;;1.15;99.43;97757.06;5002373;28;20725;-56
2022/12/10 10:18:54;;;;;;;0.00;0.00;;;;;;;1.08;99.11;97751.56;5000504;28;20291;-56
2022/12/10 10:21:23;;;;;;;0.00;0.00;;;;;;;1.08;99.30;97755.84;5005839;28;20232;-56
2022/12/10 10:23:50;;;;;;;0.00;0.00;;;;;;;1.22;99.26;97754.88;5000606;28;20240;-56
2022/12/10 10:26:17;;;;;;;0.00;0.00;;;;;;;1.18;99.19;97760.22;5005940;28;20286;-57
2022/12/10 10:28:45;;;;;;;0.00;0.00;;;;;;;1.24;99.53;97758.13;5002909;28;20243;-56
2022/12/10 10:31:21;;;;;;;0.00;0.00;;;;;;;1.39;99.83;97754.44;5003668;28;20232;-56
2022/12/10 10:33:56;;;;;;;0.00;0.00;;;;;;;1.53;99.19;97755.16;5002439;28;20215;-57
2022/12/10 10:36:28;;;;;;;0.00;0.00;;;;;;;1.70;100.00;97761.59;5008231;28;20251;-57
2022/12/10 10:38:55;;;;;;;0.00;0.00;;;;;;;1.81;97.98;97759.03;5003048;28;20222;-57
2022/12/10 10:41:24;;;;;;;0.00;0.00;;;;;;;1.91;96.26;97761.72;5005164;28;20647;-57
2022/12/10 10:44:03;;;;;;;0.00;0.00;;;;;;;2.10;95.92;97765.44;5001673;28;20232;-56
2022/12/10 10:46:36;;;;;;;0.00;0.00;;;;;;;2.03;95.11;97763.34;5005062;28;20302;-57
2022/12/10 10:49:19;;;;;;;0.00;0.00;;;;;;;2.15;96.11;97765.91;5002155;28;20232;-57
2022/12/10 10:51:46;;;;;;;0.00;0.00;;;;;;;2.16;92.98;97759.84;5001278;28;20245;-58
2022/12/10 10:54:19;;;;;;;0.00;0.00;;;;;;;2.15;92.11;97768.50;5003954;28;20228;-57
2022/12/10 10:56:45;;;;;;;0.00;0.00;;;;;;;1.71;92.36;97761.47;5002648;28;20228;-56
2022/12/10 10:59:31;;;;;;;0.00;0.00;;;;;;;1.88;93.41;97770.50;5005415;28;20232;-56
2022/12/10 11:02:05;;;;;;;0.00;0.00;;;;;;;1.75;93.96;97772.38;5001927;28;20744;-57
2022/12/10 11:04:38;;;;;;;0.00;0.00;;;;;;;1.73;94.49;97771.66;5004297;28;20256;-57
2022/12/10 11:07:13;;;;;;;0.00;0.00;;;;;;;1.73;94.20;97776.81;5002640;28;20719;-57
2022/12/10 11:09:40;;;;;;;0.00;0.00;;;;;;;1.77;93.46;97767.91;5001073;28;20243;-57
2022/12/10 11:12:21;;;;;;;0.00;0.00;;;;;;;1.81;93.44;97774.47;5005101;28;20240;-57
2022/12/10 11:14:48;;;;;;;0.00;0.00;;;;;;;1.87;92.31;97771.44;5002000;28;20228;-57
2022/12/10 11:17:21;;;;;;;0.00;0.00;;;;;;;1.89;91.71;97772.13;5004831;28;20236;-57
2022/12/10 11:19:56;;;;;;;0.00;0.00;;;;;;;1.73;92.28;97769.88;5001878;28;20597;-54
2022/12/10 11:22:24;;;;;;;0.00;0.00;;;;;;;1.84;91.49;97776.81;5004842;28;20289;-55
2022/12/10 11:24:52;;;;;;;0.03;0.03;;;;;;;1.94;91.17;97781.25;5001949;28;20237;-56
2022/12/10 11:27:37;;;;;;;0.00;0.00;;;;;;;1.87;91.12;97778.31;5003712;28;20295;-57
2022/12/10 11:30:07;;;;;;;0.00;0.00;;;;;;;1.82;91.03;97770.97;5002258;28;20236;-56
2022/12/10 11:32:46;;;;;;;0.00;0.00;;;;;;;1.70;92.12;97779.59;5004648;28;20232;-56
2022/12/10 11:35:18;;;;;;;0.00;0.00;;;;;;;1.50;93.23;97776.78;5001566;28;20715;-56
2022/12/10 11:37:51;;;;;;;0.00;0.00;;;;;;;1.54;91.45;97783.31;5001330;28;20227;-56
2022/12/10 11:40:33;;;;;;;0.00;0.00;;;;;;;1.33;93.00;97783.97;5003937;28;20577;-58
2022/12/10 11:43:17;;;;;;;0.00;0.00;;;;;;;1.56;93.88;97773.75;5001463;28;20322;-56
2022/12/10 11:45:57;;;;;;;0.00;0.00;;;;;;;1.70;92.55;97772.69;5000606;28;20710;-57
2022/12/10 11:48:37;;;;;;;0.00;0.00;;;;;;;1.83;91.02;97777.75;5003421;28;20584;-56
2022/12/10 11:51:08;;;;;;;0.00;0.00;;;;;;;1.88;90.52;97779.97;5002055;28;20236;-57
2022/12/10 11:53:51;;;;;;;0.00;0.00;;;;;;;1.89;91.31;97777.28;5004495;28;20232;-56